Time;durP1;ratioP1;P1;durP2;ratioP2;P2;SDS_P1;SDS_P2;PMS_P1;PMS_P2;Temp;Humidity;BMP_temperature;BMP_pressure;BME280_temperature;BME280_humidity;BME280_pressure;Samples;Min_cycle;Max_cycle;Signal;HPM_P1;HPM_P2
2023/09/08 00:00:49;;;;;;;12.00;6.47;;;16.20;99.90;;;;;;5003269;28;20575;-75
2023/09/08 00:03:35;;;;;;;8.43;5.40;;;16.20;99.90;;;;;;5004212;28;20463;-73
2023/09/08 00:06:20;;;;;;;7.63;6.03;;;16.20;99.90;;;;;;5005381;28;20470;-73
2023/09/08 00:09:06;;;;;;;9.07;5.97;;;16.30;99.90;;;;;;5002738;28;20514;-74
2023/09/08 00:11:52;;;;;;;8.50;5.50;;;16.30;99.90;;;;;;5005594;28;20591;-72
2023/09/08 00:14:38;;;;;;;12.23;6.60;;;16.30;99.90;;;;;;5003037;28;20600;-73
2023/09/08 00:17:25;;;;;;;7.80;5.97;;;16.30;99.90;;;;;;5004906;28;20460;-72
2023/09/08 00:20:11;;;;;;;9.10;6.03;;;16.30;99.90;;;;;;5001588;28;20509;-72
2023/09/08 00:22:57;;;;;;;11.87;6.00;;;16.20;99.90;;;;;;5008289;28;20957;-74
2023/09/08 00:25:43;;;;;;;6.73;6.00;;;16.30;99.90;;;;;;5007296;28;20946;-73
2023/09/08 00:28:29;;;;;;;9.50;5.70;;;16.30;99.90;;;;;;5005994;28;20421;-72
2023/09/08 00:31:14;;;;;;;6.80;6.10;;;16.30;99.90;;;;;;5031761;23;20468;-88
2023/09/08 00:34:01;;;;;;;8.70;5.53;;;16.20;99.90;;;;;;5007522;28;20431;-89
2023/09/08 00:36:47;;;;;;;8.97;6.30;;;16.20;99.90;;;;;;5008337;28;20410;-89
2023/09/08 00:39:32;;;;;;;10.73;5.80;;;16.20;99.90;;;;;;5008300;28;20791;-89
2023/09/08 00:42:18;;;;;;;13.83;6.73;;;16.10;99.90;;;;;;5002335;28;20555;-89
2023/09/08 00:45:04;;;;;;;10.00;5.80;;;16.10;99.90;;;;;;5009256;28;20557;-89
2023/09/08 00:47:50;;;;;;;6.90;5.33;;;16.00;99.90;;;;;;5008272;28;20963;-89
2023/09/08 00:50:38;;;;;;;9.17;6.20;;;15.90;99.90;;;;;;5006556;28;20455;-88
2023/09/08 00:53:24;;;;;;;10.50;5.40;;;16.00;99.90;;;;;;5008805;28;20490;-89
2023/09/08 00:56:11;;;;;;;6.87;5.37;;;16.10;99.90;;;;;;5009996;28;20475;-89
2023/09/08 00:58:57;;;;;;;11.47;5.90;;;16.10;99.90;;;;;;5007271;28;20835;-89
2023/09/08 01:01:42;;;;;;;7.03;5.80;;;16.20;99.90;;;;;;5006582;28;20448;-89
2023/09/08 01:04:28;;;;;;;7.57;6.10;;;16.20;99.90;;;;;;5006012;28;20573;-89
2023/09/08 01:07:16;;;;;;;8.50;5.77;;;15.90;99.90;;;;;;5007354;28;20512;-90
2023/09/08 01:10:05;;;;;;;8.37;5.10;;;16.00;99.90;;;;;;5009277;28;20443;-90
2023/09/08 01:12:51;;;;;;;8.10;5.63;;;15.90;99.90;;;;;;5008079;28;20503;-89
2023/09/08 01:15:37;;;;;;;7.33;6.00;;;15.90;99.90;;;;;;5005367;28;20490;-90
2023/09/08 01:18:23;;;;;;;7.70;5.93;;;15.90;99.90;;;;;;5008537;28;20914;-89
2023/09/08 01:21:50;;;;;;;8.33;5.97;;;15.80;99.90;;;;;;5006073;28;20413;-89
2023/09/08 01:25:04;;;;;;;8.43;5.47;;;15.80;99.90;;;;;;5007077;28;20429;-89
2023/09/08 01:27:53;;;;;;;6.20;5.40;;;15.80;99.90;;;;;;5009156;28;20446;-90
2023/09/08 01:30:39;;;;;;;8.63;6.00;;;15.80;99.90;;;;;;5005511;28;20437;-90
2023/09/08 01:33:25;;;;;;;8.13;5.57;;;15.80;99.90;;;;;;5007839;28;20493;-89
2023/09/08 01:36:11;;;;;;;7.60;5.57;;;15.90;99.90;;;;;;5004814;28;20428;-90
2023/09/08 01:38:57;;;;;;;6.37;5.43;;;15.80;99.90;;;;;;5009929;28;20621;-89
2023/09/08 01:41:44;;;;;;;9.83;6.80;;;15.80;99.90;;;;;;5007260;28;20758;-89
2023/09/08 01:44:30;;;;;;;8.63;5.87;;;15.80;99.90;;;;;;5004105;28;20438;-90
2023/09/08 01:47:16;;;;;;;6.67;5.40;;;15.80;99.90;;;;;;5005851;28;20936;-90
2023/09/08 01:50:02;;;;;;;11.40;5.70;;;15.70;99.90;;;;;;5005807;28;20802;-89
2023/09/08 01:52:48;;;;;;;7.90;5.47;;;15.60;99.90;;;;;;4999484;28;20469;-90
2023/09/08 01:55:33;;;;;;;7.00;5.87;;;15.60;99.90;;;;;;5003595;28;20923;-89
2023/09/08 01:58:21;;;;;;;10.40;5.50;;;15.50;99.90;;;;;;5007319;28;21046;-89
2023/09/08 02:01:06;;;;;;;8.40;6.47;;;15.50;99.90;;;;;;5008728;28;20822;-89
2023/09/08 02:03:52;;;;;;;8.17;6.53;;;15.50;99.90;;;;;;5006517;28;20466;-89
2023/09/08 02:06:38;;;;;;;7.60;5.07;;;15.60;99.90;;;;;;5006303;28;20987;-89
2023/09/08 02:09:30;;;;;;;9.20;5.80;;;15.60;99.90;;;;;;5006185;28;20441;-89
2023/09/08 02:12:16;;;;;;;8.30;5.87;;;15.50;99.90;;;;;;5008777;28;20436;-90
2023/09/08 02:15:04;;;;;;;6.10;4.93;;;15.50;99.90;;;;;;5008374;28;20451;-89
2023/09/08 02:17:54;;;;;;;7.70;5.00;;;15.40;99.90;;;;;;5004086;28;20474;-89
2023/09/08 02:20:39;;;;;;;5.83;4.93;;;15.30;99.90;;;;;;5008228;28;20897;-89
2023/09/08 02:23:25;;;;;;;6.30;5.70;;;15.30;99.90;;;;;;5004749;28;20484;-89
2023/09/08 02:26:11;;;;;;;7.80;5.67;;;15.20;99.90;;;;;;5006190;28;21362;-89
2023/09/08 02:28:57;;;;;;;7.93;5.90;;;15.20;99.90;;;;;;5008753;28;20456;-90
2023/09/08 02:31:45;;;;;;;6.60;5.60;;;15.30;99.90;;;;;;5005271;28;20475;-90
2023/09/08 02:34:31;;;;;;;6.33;5.43;;;15.40;99.90;;;;;;5005755;28;20983;-89
2023/09/08 02:37:18;;;;;;;7.37;5.53;;;15.40;99.90;;;;;;5002666;28;20527;-90
2023/09/08 02:40:06;;;;;;;8.23;4.80;;;15.30;99.90;;;;;;5004998;28;20536;-90
2023/09/08 02:42:51;;;;;;;10.30;5.80;;;15.40;99.90;;;;;;5006392;28;20443;-90
2023/09/08 02:45:37;;;;;;;6.33;4.90;;;15.30;99.90;;;;;;5004961;28;21012;-90
2023/09/08 02:48:25;;;;;;;6.13;5.00;;;15.30;99.90;;;;;;5004111;28;20556;-90
2023/09/08 02:51:12;;;;;;;7.23;5.10;;;15.40;99.90;;;;;;4997896;28;20420;-90
2023/09/08 02:53:57;;;;;;;6.83;5.07;;;15.40;99.90;;;;;;4999075;28;20474;-90
2023/09/08 02:56:43;;;;;;;7.20;5.20;;;15.40;99.90;;;;;;4999146;28;20447;-90
2023/09/08 02:59:29;;;;;;;9.30;4.77;;;15.40;99.90;;;;;;4998850;28;20920;-90
2023/09/08 03:02:14;;;;;;;8.23;4.73;;;15.40;99.90;;;;;;5002394;28;20622;-90
2023/09/08 03:05:01;;;;;;;7.53;5.33;;;15.30;99.90;;;;;;5004709;28;20445;-90
2023/09/08 03:07:49;;;;;;;5.17;4.57;;;15.30;99.90;;;;;;5005587;28;20422;-89
2023/09/08 03:10:35;;;;;;;6.50;5.20;;;15.20;99.90;;;;;;5003470;28;20441;-90
2023/09/08 03:13:21;;;;;;;12.30;5.87;;;15.00;99.90;;;;;;5004201;28;20469;-90
2023/09/08 03:16:08;;;;;;;9.30;5.53;;;15.00;99.90;;;;;;5004758;28;20538;-89
2023/09/08 03:18:53;;;;;;;6.83;4.30;;;15.00;99.90;;;;;;4997314;28;20530;-90
2023/09/08 03:21:41;;;;;;;7.67;5.43;;;15.00;99.90;;;;;;5005235;28;20490;-90
2023/09/08 03:24:26;;;;;;;5.63;5.00;;;15.10;99.90;;;;;;4999171;28;20825;-89
2023/09/08 03:27:12;;;;;;;5.37;4.63;;;15.10;99.90;;;;;;5004799;28;20419;-90
2023/09/08 03:29:58;;;;;;;6.63;5.00;;;15.00;99.90;;;;;;5002992;28;20448;-90
2023/09/08 03:32:44;;;;;;;5.73;4.77;;;15.10;99.90;;;;;;5002456;28;20540;-90
2023/09/08 03:35:29;;;;;;;7.10;4.70;;;15.10;99.90;;;;;;5005619;28;20412;-90
2023/09/08 03:38:16;;;;;;;7.07;5.27;;;15.10;99.90;;;;;;5000970;28;20499;-90
2023/09/08 03:41:02;;;;;;;11.57;5.70;;;15.00;99.90;;;;;;5002237;28;20446;-90
2023/09/08 03:43:49;;;;;;;6.50;5.20;;;14.90;99.90;;;;;;5005764;28;20512;-90
2023/09/08 03:46:34;;;;;;;6.50;5.23;;;14.80;99.90;;;;;;5003305;28;20610;-90
2023/09/08 03:49:20;;;;;;;7.60;6.30;;;14.80;99.90;;;;;;5006881;28;20538;-90
2023/09/08 03:52:06;;;;;;;7.20;5.97;;;14.90;99.90;;;;;;5005214;28;20451;-90
2023/09/08 03:54:53;;;;;;;9.80;5.90;;;14.90;99.90;;;;;;5003909;28;20449;-90
2023/09/08 03:57:39;;;;;;;9.47;6.13;;;15.00;99.90;;;;;;5005523;28;20421;-90
2023/09/08 04:00:25;;;;;;;6.73;5.00;;;15.00;99.90;;;;;;5003037;28;20944;-90
2023/09/08 04:03:10;;;;;;;7.97;5.70;;;15.10;99.90;;;;;;5005791;28;20543;-90
2023/09/08 04:05:56;;;;;;;6.17;5.10;;;15.00;99.90;;;;;;5002202;28;20996;-90
2023/09/08 04:08:42;;;;;;;7.10;5.17;;;15.00;99.90;;;;;;5000391;28;20444;-90
2023/09/08 04:11:29;;;;;;;5.20;4.70;;;15.00;99.90;;;;;;5004756;28;20540;-90
2023/09/08 04:14:15;;;;;;;7.77;5.50;;;14.90;99.90;;;;;;5003759;28;20420;-90
2023/09/08 04:17:01;;;;;;;9.33;5.60;;;14.80;99.90;;;;;;5001159;28;20832;-90
2023/09/08 04:19:46;;;;;;;7.90;5.33;;;14.80;99.90;;;;;;5003646;28;20911;-90
2023/09/08 04:22:32;;;;;;;8.33;5.83;;;14.80;99.90;;;;;;5000792;28;20482;-90
2023/09/08 04:25:18;;;;;;;7.13;5.40;;;14.80;99.90;;;;;;5005251;28;20488;-89
2023/09/08 04:28:06;;;;;;;5.73;5.00;;;14.80;99.90;;;;;;5004456;28;20492;-90
2023/09/08 04:30:51;;;;;;;8.37;5.37;;;14.70;99.90;;;;;;5005794;28;20469;-90
2023/09/08 04:33:37;;;;;;;8.30;5.70;;;14.90;99.90;;;;;;5004333;28;20456;-90
2023/09/08 04:36:23;;;;;;;8.80;5.80;;;14.90;99.90;;;;;;5017215;28;20434;-90
2023/09/08 04:39:10;;;;;;;5.97;5.37;;;14.90;99.90;;;;;;5009820;28;20884;-90
2023/09/08 04:41:56;;;;;;;7.37;6.20;;;14.90;99.90;;;;;;5003737;28;20456;-90
2023/09/08 04:44:43;;;;;;;6.80;5.77;;;14.90;99.90;;;;;;5003402;28;20790;-90
2023/09/08 04:47:29;;;;;;;11.40;7.07;;;14.80;99.90;;;;;;5004178;28;20416;-90
2023/09/08 04:50:15;;;;;;;9.23;6.93;;;14.70;99.90;;;;;;5003443;28;20421;-90
2023/09/08 04:53:00;;;;;;;10.00;6.67;;;14.70;99.90;;;;;;5005014;28;21238;-90
2023/09/08 04:55:46;;;;;;;8.23;6.60;;;14.80;99.90;;;;;;5005851;28;20546;-90
2023/09/08 04:58:32;;;;;;;8.33;6.00;;;14.80;99.90;;;;;;5006875;28;20810;-90
2023/09/08 05:01:19;;;;;;;6.40;5.20;;;14.80;99.90;;;;;;5001867;28;20829;-90
2023/09/08 05:04:05;;;;;;;6.80;5.00;;;14.90;99.90;;;;;;5003678;28;20497;-90
2023/09/08 05:06:51;;;;;;;7.03;5.53;;;14.90;99.90;;;;;;5006308;28;20424;-90
2023/09/08 05:09:36;;;;;;;9.20;5.90;;;15.00;99.90;;;;;;5006406;28;20897;-90
2023/09/08 05:12:23;;;;;;;8.27;6.00;;;14.90;99.90;;;;;;5007524;28;20477;-90
2023/09/08 05:15:14;;;;;;;16.23;4.97;;;14.90;99.90;;;;;;5006940;28;20595;-90
2023/09/08 05:18:02;;;;;;;11.83;6.20;;;14.90;99.90;;;;;;5004666;28;20416;-90
2023/09/08 05:20:49;;;;;;;6.63;5.40;;;14.90;99.90;;;;;;5009241;28;20513;-90
2023/09/08 05:23:35;;;;;;;9.27;6.33;;;14.90;99.90;;;;;;5007061;28;20520;-89
2023/09/08 05:26:20;;;;;;;9.70;5.43;;;14.80;99.90;;;;;;5005729;28;20441;-90
2023/09/08 05:29:06;;;;;;;7.50;6.17;;;14.80;99.90;;;;;;5005130;28;20526;-89
2023/09/08 05:31:52;;;;;;;7.83;6.20;;;14.70;99.90;;;;;;5004310;28;20545;-90
2023/09/08 05:34:40;;;;;;;7.80;5.70;;;14.60;99.90;;;;;;5007057;28;20836;-89
2023/09/08 05:37:25;;;;;;;6.53;5.00;;;14.70;99.90;;;;;;5007386;28;20516;-90
2023/09/08 05:40:12;;;;;;;10.10;6.57;;;14.80;99.90;;;;;;5006767;28;20460;-91
2023/09/08 05:42:58;;;;;;;8.23;6.07;;;14.90;99.90;;;;;;5003844;28;20981;-90
2023/09/08 05:45:43;;;;;;;7.77;6.00;;;15.00;99.90;;;;;;5004354;28;20411;-89
2023/09/08 05:48:29;;;;;;;21.23;6.50;;;15.00;99.90;;;;;;5002952;28;20449;-90
2023/09/08 05:51:16;;;;;;;10.33;5.77;;;14.90;99.90;;;;;;5007456;28;20445;-89
2023/09/08 05:54:02;;;;;;;8.00;6.30;;;14.90;99.90;;;;;;5003108;28;20504;-89
2023/09/08 05:56:48;;;;;;;9.77;5.90;;;14.80;99.90;;;;;;5005007;28;20419;-89
2023/09/08 05:59:33;;;;;;;9.67;6.90;;;14.70;99.90;;;;;;5003826;28;20456;-89
2023/09/08 06:02:19;;;;;;;6.63;5.63;;;14.80;99.90;;;;;;5008179;28;20453;-90
2023/09/08 06:05:05;;;;;;;7.27;6.53;;;15.00;99.90;;;;;;5009205;28;20566;-89
2023/09/08 06:07:52;;;;;;;9.40;6.10;;;15.20;99.90;;;;;;5007946;28;20424;-89
2023/09/08 06:10:38;;;;;;;8.90;6.57;;;15.40;99.90;;;;;;5002640;28;20429;-89
2023/09/08 06:13:24;;;;;;;7.90;6.10;;;15.50;99.90;;;;;;5006785;28;20466;-90
2023/09/08 06:16:10;;;;;;;7.50;6.17;;;15.60;99.90;;;;;;5007947;28;20449;-90
2023/09/08 06:18:56;;;;;;;10.37;7.00;;;15.70;99.90;;;;;;5006034;28;21014;-89
2023/09/08 06:21:41;;;;;;;9.80;7.23;;;15.90;99.90;;;;;;5007713;28;20446;-89
2023/09/08 06:24:29;;;;;;;8.40;6.70;;;16.10;99.90;;;;;;5004773;28;21076;-90
2023/09/08 06:27:15;;;;;;;11.00;7.27;;;16.20;99.90;;;;;;5006368;28;20958;-90
2023/09/08 06:30:01;;;;;;;9.50;5.90;;;16.20;99.90;;;;;;5008239;28;20436;-89
2023/09/08 06:32:46;;;;;;;8.00;5.80;;;16.30;99.90;;;;;;5020447;23;20419;-77
2023/09/08 06:35:33;;;;;;;7.40;5.80;;;16.40;99.90;;;;;;5002802;28;20483;-79
2023/09/08 06:38:19;;;;;;;8.87;6.50;;;16.50;99.90;;;;;;5001907;28;20433;-76
2023/09/08 06:41:11;;;;;;;12.57;6.73;;;16.50;99.90;;;;;;4986074;28;20472;-77
2023/09/08 06:43:57;;;;;;;13.03;6.37;;;16.70;99.90;;;;;;4985994;28;20468;-76
2023/09/08 06:46:42;;;;;;;10.80;7.10;;;16.80;99.90;;;;;;4984786;28;20566;-77
2023/09/08 06:49:28;;;;;;;7.17;6.10;;;16.80;99.90;;;;;;4984659;28;20495;-77
2023/09/08 06:52:14;;;;;;;9.10;6.53;;;17.00;99.90;;;;;;4984631;28;20439;-77
2023/09/08 06:54:59;;;;;;;11.00;6.40;;;17.10;99.90;;;;;;4984582;28;20502;-77
2023/09/08 06:57:47;;;;;;;8.97;6.00;;;17.20;99.90;;;;;;4981005;28;20461;-76
2023/09/08 07:00:33;;;;;;;7.80;6.57;;;17.30;99.90;;;;;;4981314;28;20508;-76
2023/09/08 07:03:18;;;;;;;9.77;7.47;;;17.50;99.90;;;;;;4981453;28;21114;-77
2023/09/08 07:06:04;;;;;;;15.03;8.37;;;17.60;99.90;;;;;;4981549;28;20419;-77
2023/09/08 07:08:50;;;;;;;10.30;7.43;;;17.70;99.90;;;;;;4992207;28;20461;-77
2023/09/08 07:11:35;;;;;;;15.23;7.93;;;17.80;99.90;;;;;;4988564;28;20552;-76
2023/09/08 07:14:23;;;;;;;15.73;6.40;;;18.00;99.90;;;;;;4976615;28;20613;-77
2023/09/08 07:17:09;;;;;;;8.73;7.23;;;18.10;99.90;;;;;;4981910;28;20448;-77
2023/09/08 07:19:55;;;;;;;8.37;6.50;;;18.20;99.90;;;;;;4979904;28;21002;-77
2023/09/08 07:22:40;;;;;;;9.63;6.40;;;18.40;99.90;;;;;;4985562;28;20514;-77
2023/09/08 07:25:26;;;;;;;11.20;6.60;;;18.60;99.90;;;;;;4983349;28;20534;-77
2023/09/08 07:28:12;;;;;;;8.93;6.77;;;18.70;99.90;;;;;;4984163;28;20938;-77
2023/09/08 07:31:03;;;;;;;8.90;6.40;;;18.90;99.90;;;;;;4983241;28;20501;-77
2023/09/08 07:33:49;;;;;;;11.37;6.80;;;19.00;99.90;;;;;;4981202;28;20448;-78
2023/09/08 07:36:36;;;;;;;9.37;6.77;;;19.20;99.90;;;;;;4986137;28;20572;-78
2023/09/08 07:39:22;;;;;;;7.03;6.07;;;19.30;99.90;;;;;;4985491;28;20833;-77
2023/09/08 07:42:08;;;;;;;14.73;7.20;;;19.40;99.90;;;;;;4986032;28;20539;-77
2023/09/08 07:44:54;;;;;;;11.23;6.40;;;19.60;99.90;;;;;;4984405;28;20985;-77
2023/09/08 07:47:41;;;;;;;7.33;6.00;;;19.70;99.90;;;;;;4980318;28;20968;-77
2023/09/08 07:50:28;;;;;;;6.77;5.77;;;19.90;99.90;;;;;;5011136;23;21021;-73
2023/09/08 07:53:14;;;;;;;7.73;6.17;;;20.00;99.90;;;;;;5010525;28;20444;-74
2023/09/08 07:55:59;;;;;;;6.67;5.63;;;20.20;99.90;;;;;;5004784;28;20535;-75
2023/09/08 07:58:46;;;;;;;12.23;6.47;;;20.30;99.90;;;;;;5001234;28;20423;-75
2023/09/08 08:01:32;;;;;;;9.20;6.40;;;20.50;99.90;;;;;;5004394;28;20607;-73
2023/09/08 08:04:19;;;;;;;6.80;5.27;;;20.60;99.90;;;;;;5007483;28;20584;-74
2023/09/08 08:07:05;;;;;;;7.67;6.33;;;20.70;99.90;;;;;;5010879;28;20447;-73
2023/09/08 08:09:50;;;;;;;6.80;6.10;;;20.80;99.90;;;;;;5011668;28;20462;-77
2023/09/08 08:12:36;;;;;;;7.10;6.07;;;20.90;99.90;;;;;;5006652;28;20448;-75
2023/09/08 08:15:22;;;;;;;6.53;5.50;;;21.10;99.90;;;;;;4995352;28;20415;-73
2023/09/08 08:18:09;;;;;;;7.40;5.70;;;21.20;99.90;;;;;;5004892;28;20542;-73
2023/09/08 08:20:56;;;;;;;7.57;6.20;;;21.40;99.90;;;;;;5004078;28;20631;-73
2023/09/08 08:23:42;;;;;;;6.00;5.40;;;21.50;99.90;;;;;;5001991;28;20456;-74
2023/09/08 08:26:32;;;;;;;8.73;6.33;;;21.70;99.90;;;;;;5006479;28;20448;-75
2023/09/08 08:29:18;;;;;;;9.70;6.23;;;21.80;99.90;;;;;;5000616;28;20676;-73
2023/09/08 08:32:04;;;;;;;9.80;5.93;;;21.90;99.90;;;;;;5014529;28;20463;-73
2023/09/08 08:34:50;;;;;;;7.10;6.07;;;22.00;99.90;;;;;;5006488;28;20448;-73
2023/09/08 08:37:37;;;;;;;8.10;6.50;;;22.10;99.90;;;;;;5006325;28;20523;-73
2023/09/08 08:40:26;;;;;;;11.53;5.97;;;22.20;99.90;;;;;;4998211;28;20501;-73
2023/09/08 08:43:12;;;;;;;7.27;5.60;;;22.40;99.90;;;;;;5001518;28;20441;-73
2023/09/08 08:46:00;;;;;;;9.83;5.87;;;22.50;99.90;;;;;;5006546;28;20443;-77
2023/09/08 08:48:47;;;;;;;6.27;5.47;;;22.60;99.90;;;;;;5011058;28;20450;-73
2023/09/08 08:51:34;;;;;;;7.30;5.77;;;22.70;99.90;;;;;;5007186;28;20479;-74
2023/09/08 08:54:21;;;;;;;5.70;4.80;;;22.70;99.90;;;;;;5007890;28;20485;-74
2023/09/08 08:57:08;;;;;;;6.80;5.20;;;22.80;99.90;;;;;;5014502;28;20449;-74
2023/09/08 08:59:54;;;;;;;6.70;5.80;;;22.90;99.90;;;;;;5011618;28;20471;-74
2023/09/08 09:02:41;;;;;;;7.90;5.60;;;23.00;99.90;;;;;;5006734;28;20615;-74
2023/09/08 09:05:28;;;;;;;7.40;5.60;;;23.10;99.90;;;;;;5011816;28;20448;-74
2023/09/08 09:08:14;;;;;;;8.17;5.70;;;23.20;95.60;;;;;;5009014;28;20551;-73
2023/09/08 09:11:01;;;;;;;7.97;5.40;;;23.30;97.20;;;;;;5001733;28;20462;-75
2023/09/08 09:13:47;;;;;;;8.20;5.13;;;23.40;96.40;;;;;;5009373;28;20450;-74
2023/09/08 09:16:40;;;;;;;9.87;5.53;;;23.60;96.50;;;;;;5008030;28;20585;-73
2023/09/08 09:19:27;;;;;;;8.00;6.00;;;23.70;97.60;;;;;;5014503;28;20655;-73
2023/09/08 09:22:12;;;;;;;7.53;5.80;;;23.80;94.60;;;;;;5007622;28;20493;-74
2023/09/08 09:24:58;;;;;;;8.97;6.27;;;23.90;91.80;;;;;;5011638;28;20437;-73
2023/09/08 09:27:51;;;;;;;8.23;5.50;;;24.00;93.40;;;;;;5008025;28;20960;-75
2023/09/08 09:30:49;;;;;;;9.37;5.40;;;24.10;94.70;;;;;;5017169;28;20464;-74
2023/09/08 09:33:35;;;;;;;7.33;5.87;;;24.10;95.00;;;;;;5024082;28;20424;-74
2023/09/08 09:36:21;;;;;;;9.13;5.97;;;24.30;90.80;;;;;;5010704;28;20823;-74
2023/09/08 09:39:07;;;;;;;8.77;5.20;;;24.30;88.60;;;;;;5015736;28;22199;-74
2023/09/08 09:41:55;;;;;;;7.17;5.73;;;24.40;89.40;;;;;;5008168;28;20445;-74
2023/09/08 09:44:42;;;;;;;6.23;5.57;;;24.40;81.00;;;;;;5016054;28;21035;-74
2023/09/08 09:47:28;;;;;;;7.03;6.20;;;24.40;84.40;;;;;;5015638;28;20641;-74
2023/09/08 09:50:14;;;;;;;8.57;5.30;;;24.40;76.80;;;;;;5004527;28;20818;-73
2023/09/08 09:53:00;;;;;;;6.77;5.53;;;24.50;78.90;;;;;;5001768;28;20441;-73
2023/09/08 09:55:47;;;;;;;7.43;5.87;;;24.50;80.00;;;;;;5014230;28;20836;-76
2023/09/08 09:58:33;;;;;;;7.20;5.90;;;24.70;88.40;;;;;;5011488;28;20742;-73
2023/09/08 10:01:20;;;;;;;6.30;5.30;;;24.70;90.10;;;;;;5017659;28;20510;-73
2023/09/08 10:04:07;;;;;;;8.00;6.10;;;24.90;80.80;;;;;;5008060;28;20443;-73
2023/09/08 10:06:53;;;;;;;8.63;5.57;;;24.90;82.10;;;;;;5016646;28;20443;-74
2023/09/08 10:09:38;;;;;;;9.40;5.30;;;25.00;79.50;;;;;;5005851;28;20598;-73
2023/09/08 10:12:25;;;;;;;7.20;6.47;;;25.00;82.90;;;;;;5008238;28;20484;-73
2023/09/08 10:15:12;;;;;;;11.43;5.60;;;25.10;76.80;;;;;;5011450;28;20453;-73
2023/09/08 10:18:00;;;;;;;6.43;5.20;;;25.30;78.80;;;;;;5004890;28;20810;-76
2023/09/08 10:20:45;;;;;;;8.10;5.77;;;25.40;73.60;;;;;;5005955;28;20494;-74
2023/09/08 10:23:37;;;;;;;6.43;5.23;;;25.50;71.10;;;;;;5018718;28;20456;-72
2023/09/08 10:26:27;;;;;;;7.57;5.20;;;25.60;73.20;;;;;;5010898;28;20969;-71
2023/09/08 10:29:14;;;;;;;9.13;7.83;;;25.80;74.80;;;;;;5003876;28;20544;-71
2023/09/08 10:32:01;;;;;;;9.53;6.70;;;25.60;72.50;;;;;;5004052;28;20442;-72
2023/09/08 10:34:49;;;;;;;11.17;6.80;;;25.70;75.20;;;;;;4995741;28;20825;-72
2023/09/08 10:37:35;;;;;;;8.70;6.70;;;25.70;73.90;;;;;;5006362;28;20537;-72
2023/09/08 10:40:27;;;;;;;16.33;7.17;;;25.80;73.10;;;;;;5001865;28;20845;-72
2023/09/08 10:43:13;;;;;;;8.43;6.80;;;25.90;69.50;;;;;;4998942;28;20497;-74
2023/09/08 10:45:58;;;;;;;9.47;6.13;;;25.80;70.70;;;;;;5013090;28;20890;-75
2023/09/08 10:48:45;;;;;;;7.07;5.87;;;25.80;71.50;;;;;;5004249;28;20483;-72
2023/09/08 10:51:32;;;;;;;9.10;7.30;;;25.90;71.40;;;;;;5005216;28;20712;-71
2023/09/08 10:54:41;;;;;;;10.20;6.60;;;26.00;64.80;;;;;;4995158;28;20456;-72
2023/09/08 10:57:31;;;;;;;8.73;7.13;;;25.90;64.90;;;;;;5006426;28;20497;-72
2023/09/08 11:00:20;;;;;;;10.03;7.07;;;25.90;66.80;;;;;;5005606;28;21141;-71
2023/09/08 11:03:07;;;;;;;8.60;6.80;;;25.90;70.40;;;;;;5001607;28;20464;-71
2023/09/08 11:05:52;;;;;;;8.67;7.77;;;26.10;69.70;;;;;;5004534;28;20448;-73
2023/09/08 11:08:42;;;;;;;11.93;7.23;;;26.20;65.70;;;;;;4998105;28;20445;-71
2023/09/08 11:11:28;;;;;;;10.80;6.90;;;26.30;68.20;;;;;;5005689;28;21080;-74
2023/09/08 11:14:14;;;;;;;20.33;7.37;;;26.30;65.70;;;;;;5000496;28;20449;-74
2023/09/08 11:17:03;;;;;;;7.50;6.70;;;26.40;64.20;;;;;;5000021;28;20445;-74
2023/09/08 11:19:50;;;;;;;9.97;6.30;;;26.40;66.90;;;;;;5007414;28;20476;-72
2023/09/08 11:22:36;;;;;;;9.30;6.60;;;26.50;64.10;;;;;;5010166;28;20821;-71
2023/09/08 11:25:24;;;;;;;8.20;6.70;;;26.60;67.10;;;;;;5010455;28;20443;-71
2023/09/08 11:28:09;;;;;;;11.13;6.70;;;26.60;62.90;;;;;;5005945;28;20585;-71
2023/09/08 11:30:55;;;;;;;9.57;6.17;;;26.70;63.30;;;;;;5008538;28;20527;-75
2023/09/08 11:33:41;;;;;;;7.00;6.27;;;26.70;60.00;;;;;;5002715;28;21168;-72
2023/09/08 11:36:28;;;;;;;7.37;6.60;;;26.80;60.90;;;;;;4995755;28;20611;-71
2023/09/08 11:39:15;;;;;;;10.10;7.00;;;27.00;55.10;;;;;;4996346;28;20599;-71
2023/09/08 11:42:02;;;;;;;8.70;6.70;;;27.00;56.90;;;;;;4999434;28;20484;-71
2023/09/08 11:44:49;;;;;;;13.93;6.83;;;27.10;62.10;;;;;;5004863;28;20448;-71
2023/09/08 11:47:35;;;;;;;9.47;6.57;;;27.10;61.00;;;;;;5007386;28;20972;-70
2023/09/08 11:50:20;;;;;;;11.73;7.00;;;27.10;60.20;;;;;;5002155;28;20491;-72
2023/09/08 11:53:07;;;;;;;12.90;6.47;;;27.20;54.40;;;;;;5010454;28;21037;-73
2023/09/08 11:55:53;;;;;;;9.20;6.93;;;27.20;51.30;;;;;;5008106;28;20452;-73
2023/09/08 11:58:40;;;;;;;8.63;6.07;;;27.20;47.50;;;;;;5001803;28;20506;-71
2023/09/08 12:01:26;;;;;;;10.70;6.30;;;27.30;53.30;;;;;;5009052;28;20550;-71
2023/09/08 12:04:20;;;;;;;10.53;7.00;;;27.40;47.90;;;;;;4997332;28;20453;-72
2023/09/08 12:07:05;;;;;;;5.87;5.20;;;27.50;48.00;;;;;;5002837;28;20457;-71
2023/09/08 12:09:51;;;;;;;7.60;5.90;;;27.60;51.80;;;;;;5001325;28;20562;-75
2023/09/08 12:12:43;;;;;;;9.07;5.63;;;27.80;47.20;;;;;;5000900;28;20450;-73
2023/09/08 12:15:35;;;;;;;10.50;7.07;;;27.90;43.90;;;;;;4995622;28;20460;-74
2023/09/08 12:18:37;;;;;;;11.07;6.40;;;28.10;37.10;;;;;;5009389;28;20583;-73
2023/09/08 12:21:23;;;;;;;7.33;5.97;;;28.20;37.90;;;;;;5005657;28;20487;-74
2023/09/08 12:24:12;;;;;;;8.80;6.20;;;28.30;36.50;;;;;;5004627;28;20444;-74
2023/09/08 12:26:58;;;;;;;8.50;6.00;;;28.40;36.80;;;;;;5008546;28;20952;-74
2023/09/08 12:29:54;;;;;;;9.23;5.90;;;28.50;34.20;;;;;;5007304;28;20482;-74
2023/09/08 12:32:40;;;;;;;7.70;5.93;;;28.60;32.60;;;;;;5018345;28;20444;-74
2023/09/08 12:35:26;;;;;;;7.20;5.90;;;28.60;29.00;;;;;;5020156;28;20573;-75
2023/09/08 12:38:14;;;;;;;7.20;6.13;;;28.60;29.00;;;;;;5018498;28;20955;-75
2023/09/08 12:40:59;;;;;;;7.77;5.67;;;28.60;28.70;;;;;;5004321;28;20961;-75
2023/09/08 12:43:46;;;;;;;9.00;6.07;;;28.60;30.60;;;;;;5015465;28;21179;-75
2023/09/08 12:46:32;;;;;;;8.40;5.90;;;28.70;28.90;;;;;;5013337;28;20461;-72
2023/09/08 12:49:19;;;;;;;8.03;6.60;;;28.80;28.50;;;;;;5022293;28;20449;-75
2023/09/08 12:52:05;;;;;;;8.23;6.07;;;29.10;29.70;;;;;;5014624;28;20516;-75
2023/09/08 12:54:51;;;;;;;8.90;5.53;;;29.10;27.00;;;;;;5004193;28;20447;-74
2023/09/08 12:57:37;;;;;;;7.53;5.40;;;29.30;28.30;;;;;;5005031;28;20603;-75
2023/09/08 13:00:23;;;;;;;15.43;6.40;;;29.50;25.50;;;;;;5007098;28;20825;-75
2023/09/08 13:03:09;;;;;;;11.00;9.80;;;29.80;25.90;;;;;;5003826;28;20453;-75
2023/09/08 13:05:56;;;;;;;11.10;6.40;;;30.00;27.10;;;;;;4996248;28;20593;-73
2023/09/08 13:08:42;;;;;;;11.40;6.27;;;29.90;24.70;;;;;;4998191;28;20489;-75
2023/09/08 13:11:28;;;;;;;10.03;5.73;;;29.70;24.40;;;;;;5002899;28;20607;-74
2023/09/08 13:14:14;;;;;;;9.00;5.90;;;29.80;24.10;;;;;;5000673;28;20470;-74
2023/09/08 13:16:59;;;;;;;7.13;5.13;;;29.90;24.10;;;;;;5004819;28;20450;-74
2023/09/08 13:19:46;;;;;;;7.10;6.20;;;29.80;23.80;;;;;;5003252;28;20469;-75
2023/09/08 13:22:33;;;;;;;7.90;5.23;;;29.90;24.80;;;;;;4995006;28;21066;-75
2023/09/08 13:25:18;;;;;;;12.50;7.10;;;30.20;24.60;;;;;;5001181;28;20560;-75
2023/09/08 13:28:05;;;;;;;8.33;6.10;;;30.50;26.10;;;;;;4999935;28;20581;-74
2023/09/08 13:30:50;;;;;;;6.87;5.33;;;30.80;25.30;;;;;;5013071;28;20477;-75
2023/09/08 13:33:36;;;;;;;6.73;5.80;;;30.70;22.00;;;;;;5008097;28;20464;-76
2023/09/08 13:36:21;;;;;;;8.50;5.80;;;30.90;22.90;;;;;;4996176;28;20457;-76
2023/09/08 13:39:09;;;;;;;9.07;5.20;;;31.10;22.10;;;;;;5007802;28;20448;-76
2023/09/08 13:41:55;;;;;;;7.00;5.63;;;31.30;23.00;;;;;;5007645;28;20475;-75
2023/09/08 13:44:41;;;;;;;7.30;5.63;;;31.50;22.40;;;;;;5009709;28;20452;-75
2023/09/08 13:47:27;;;;;;;8.10;5.20;;;31.50;19.90;;;;;;5005891;28;20603;-74
2023/09/08 13:50:12;;;;;;;8.53;5.27;;;31.20;20.20;;;;;;5025983;22;20485;-76
2023/09/08 13:52:58;;;;;;;9.37;5.00;;;31.10;19.50;;;;;;4995633;28;20626;-75
2023/09/08 13:55:45;;;;;;;8.77;5.07;;;31.10;20.70;;;;;;4995323;28;20811;-75
2023/09/08 13:58:31;;;;;;;8.23;6.10;;;31.20;20.00;;;;;;5002855;28;20591;-75
2023/09/08 14:01:17;;;;;;;11.03;8.23;;;31.40;21.90;;;;;;4988481;28;20972;-76
2023/09/08 14:04:06;;;;;;;7.47;6.13;;;31.70;22.10;;;;;;4979894;28;20488;-75
2023/09/08 14:06:51;;;;;;;9.13;7.47;;;32.00;20.50;;;;;;4978335;28;20943;-76
2023/09/08 14:09:37;;;;;;;15.40;6.27;;;32.20;19.80;;;;;;4984430;28;20579;-76
2023/09/08 14:12:25;;;;;;;14.33;5.60;;;32.30;21.00;;;;;;4978905;28;20550;-76
2023/09/08 14:15:15;;;;;;;7.97;5.27;;;32.10;19.70;;;;;;4977914;28;20458;-75
2023/09/08 14:18:01;;;;;;;8.53;5.70;;;32.30;20.60;;;;;;4983831;28;20821;-75
2023/09/08 14:20:46;;;;;;;6.83;4.83;;;32.20;23.60;;;;;;4983971;28;20481;-77
2023/09/08 14:23:33;;;;;;;6.97;5.20;;;32.20;22.80;;;;;;4976904;28;20440;-76
2023/09/08 14:26:20;;;;;;;5.70;5.10;;;32.30;22.30;;;;;;4976415;28;20443;-76